sensor_id;sensor_type;location;lat;lon;timestamp;P1;durP1;ratioP1;P2;durP2;ratioP2
81908;SDS011;71372;43.514;1.512;2024-01-15T00:00:18;15.52;;;8.27;;
81908;SDS011;71372;43.514;1.512;2024-01-15T00:02:44;14.18;;;8.40;;
81908;SDS011;71372;43.514;1.512;2024-01-15T00:05:10;12.90;;;8.93;;
81908;SDS011;71372;43.514;1.512;2024-01-15T00:07:36;15.32;;;8.93;;
81908;SDS011;71372;43.514;1.512;2024-01-15T00:10:02;17.38;;;8.98;;
81908;SDS011;71372;43.514;1.512;2024-01-15T00:12:28;15.60;;;9.35;;
81908;SDS011;71372;43.514;1.512;2024-01-15T00:14:54;14.52;;;8.82;;
81908;SDS011;71372;43.514;1.512;2024-01-15T00:17:20;20.63;;;11.30;;
81908;SDS011;71372;43.514;1.512;2024-01-15T00:19:46;22.95;;;12.43;;
81908;SDS011;71372;43.514;1.512;2024-01-15T00:22:12;18.67;;;11.02;;
81908;SDS011;71372;43.514;1.512;2024-01-15T00:24:38;9.38;;;5.70;;
81908;SDS011;71372;43.514;1.512;2024-01-15T00:27:04;11.98;;;5.22;;
81908;SDS011;71372;43.514;1.512;2024-01-15T00:29:30;9.48;;;4.20;;
81908;SDS011;71372;43.514;1.512;2024-01-15T00:31:56;10.25;;;4.38;;
81908;SDS011;71372;43.514;1.512;2024-01-15T00:34:22;11.07;;;4.95;;
81908;SDS011;71372;43.514;1.512;2024-01-15T00:36:48;10.80;;;4.10;;
81908;SDS011;71372;43.514;1.512;2024-01-15T00:39:14;6.85;;;4.15;;
81908;SDS011;71372;43.514;1.512;2024-01-15T00:41:39;9.80;;;3.88;;
81908;SDS011;71372;43.514;1.512;2024-01-15T00:44:05;9.85;;;4.30;;
81908;SDS011;71372;43.514;1.512;2024-01-15T00:46:32;11.15;;;4.28;;
81908;SDS011;71372;43.514;1.512;2024-01-15T00:48:58;8.38;;;5.57;;
81908;SDS011;71372;43.514;1.512;2024-01-15T00:51:24;7.97;;;5.15;;
81908;SDS011;71372;43.514;1.512;2024-01-15T00:53:50;10.20;;;5.70;;
81908;SDS011;71372;43.514;1.512;2024-01-15T00:56:16;11.15;;;5.47;;
81908;SDS011;71372;43.514;1.512;2024-01-15T00:58:42;13.45;;;5.90;;
81908;SDS011;71372;43.514;1.512;2024-01-15T01:01:08;10.73;;;6.13;;
81908;SDS011;71372;43.514;1.512;2024-01-15T01:03:33;11.27;;;6.47;;
81908;SDS011;71372;43.514;1.512;2024-01-15T01:05:59;11.13;;;6.68;;
81908;SDS011;71372;43.514;1.512;2024-01-15T01:08:25;13.18;;;6.30;;
81908;SDS011;71372;43.514;1.512;2024-01-15T01:10:51;14.65;;;7.25;;
81908;SDS011;71372;43.514;1.512;2024-01-15T01:13:17;11.68;;;6.22;;
81908;SDS011;71372;43.514;1.512;2024-01-15T01:15:43;9.65;;;5.75;;
81908;SDS011;71372;43.514;1.512;2024-01-15T01:18:09;9.45;;;4.60;;
81908;SDS011;71372;43.514;1.512;2024-01-15T01:20:35;12.20;;;4.70;;
81908;SDS011;71372;43.514;1.512;2024-01-15T01:23:01;9.82;;;4.88;;
81908;SDS011;71372;43.514;1.512;2024-01-15T01:25:27;7.95;;;4.25;;
81908;SDS011;71372;43.514;1.512;2024-01-15T01:27:52;14.57;;;5.20;;
81908;SDS011;71372;43.514;1.512;2024-01-15T01:30:18;9.55;;;5.20;;
81908;SDS011;71372;43.514;1.512;2024-01-15T01:32:44;9.43;;;5.80;;
81908;SDS011;71372;43.514;1.512;2024-01-15T01:35:10;11.25;;;4.85;;
81908;SDS011;71372;43.514;1.512;2024-01-15T01:37:36;12.88;;;5.25;;
81908;SDS011;71372;43.514;1.512;2024-01-15T01:40:02;12.15;;;4.88;;
81908;SDS011;71372;43.514;1.512;2024-01-15T01:42:28;11.55;;;5.60;;
81908;SDS011;71372;43.514;1.512;2024-01-15T01:44:54;8.13;;;5.10;;
81908;SDS011;71372;43.514;1.512;2024-01-15T01:47:20;11.18;;;5.38;;
81908;SDS011;71372;43.514;1.512;2024-01-15T01:49:46;9.50;;;5.35;;
81908;SDS011;71372;43.514;1.512;2024-01-15T01:52:12;10.05;;;5.90;;
81908;SDS011;71372;43.514;1.512;2024-01-15T01:54:39;11.13;;;5.03;;
81908;SDS011;71372;43.514;1.512;2024-01-15T01:57:07;9.80;;;5.32;;
81908;SDS011;71372;43.514;1.512;2024-01-15T01:59:34;15.55;;;6.72;;
81908;SDS011;71372;43.514;1.512;2024-01-15T02:02:02;15.30;;;6.85;;
81908;SDS011;71372;43.514;1.512;2024-01-15T02:06:55;11.27;;;5.70;;
81908;SDS011;71372;43.514;1.512;2024-01-15T02:09:21;10.77;;;6.38;;
81908;SDS011;71372;43.514;1.512;2024-01-15T02:11:47;14.18;;;6.32;;
81908;SDS011;71372;43.514;1.512;2024-01-15T02:14:13;12.15;;;6.15;;
81908;SDS011;71372;43.514;1.512;2024-01-15T02:16:40;16.02;;;6.65;;
81908;SDS011;71372;43.514;1.512;2024-01-15T02:19:06;14.35;;;8.02;;
81908;SDS011;71372;43.514;1.512;2024-01-15T02:21:32;15.85;;;7.40;;
81908;SDS011;71372;43.514;1.512;2024-01-15T02:23:58;13.63;;;6.60;;
81908;SDS011;71372;43.514;1.512;2024-01-15T02:26:24;12.93;;;6.22;;
81908;SDS011;71372;43.514;1.512;2024-01-15T02:28:51;11.38;;;6.43;;
81908;SDS011;71372;43.514;1.512;2024-01-15T02:31:17;13.48;;;6.85;;
81908;SDS011;71372;43.514;1.512;2024-01-15T02:33:43;9.95;;;6.32;;
81908;SDS011;71372;43.514;1.512;2024-01-15T02:36:11;12.65;;;6.80;;
81908;SDS011;71372;43.514;1.512;2024-01-15T02:38:37;13.02;;;6.00;;
81908;SDS011;71372;43.514;1.512;2024-01-15T02:41:03;11.32;;;6.50;;
81908;SDS011;71372;43.514;1.512;2024-01-15T02:43:29;14.40;;;7.22;;
81908;SDS011;71372;43.514;1.512;2024-01-15T02:45:55;16.27;;;7.25;;
81908;SDS011;71372;43.514;1.512;2024-01-15T02:48:21;13.63;;;6.63;;
81908;SDS011;71372;43.514;1.512;2024-01-15T02:50:47;11.88;;;5.75;;
81908;SDS011;71372;43.514;1.512;2024-01-15T02:53:13;14.25;;;6.65;;
81908;SDS011;71372;43.514;1.512;2024-01-15T02:55:39;12.40;;;6.55;;
81908;SDS011;71372;43.514;1.512;2024-01-15T02:58:05;17.02;;;7.85;;
81908;SDS011;71372;43.514;1.512;2024-01-15T03:00:31;17.45;;;7.35;;
81908;SDS011;71372;43.514;1.512;2024-01-15T03:02:57;14.80;;;7.05;;
81908;SDS011;71372;43.514;1.512;2024-01-15T03:05:23;19.67;;;8.35;;
81908;SDS011;71372;43.514;1.512;2024-01-15T03:07:49;16.95;;;8.15;;
81908;SDS011;71372;43.514;1.512;2024-01-15T03:10:15;19.00;;;7.82;;
81908;SDS011;71372;43.514;1.512;2024-01-15T03:12:41;19.33;;;8.90;;
81908;SDS011;71372;43.514;1.512;2024-01-15T03:15:07;20.42;;;9.13;;
81908;SDS011;71372;43.514;1.512;2024-01-15T03:17:33;17.73;;;7.45;;
81908;SDS011;71372;43.514;1.512;2024-01-15T03:19:59;16.85;;;8.48;;
81908;SDS011;71372;43.514;1.512;2024-01-15T03:22:25;17.15;;;8.50;;
81908;SDS011;71372;43.514;1.512;2024-01-15T03:24:50;17.08;;;8.00;;
81908;SDS011;71372;43.514;1.512;2024-01-15T03:27:17;16.00;;;7.97;;
81908;SDS011;71372;43.514;1.512;2024-01-15T03:29:43;18.40;;;8.00;;
81908;SDS011;71372;43.514;1.512;2024-01-15T03:32:09;16.90;;;8.32;;
81908;SDS011;71372;43.514;1.512;2024-01-15T03:34:35;13.77;;;7.55;;
81908;SDS011;71372;43.514;1.512;2024-01-15T03:37:01;16.98;;;7.57;;
81908;SDS011;71372;43.514;1.512;2024-01-15T03:39:27;13.77;;;7.18;;
81908;SDS011;71372;43.514;1.512;2024-01-15T03:41:53;14.75;;;8.45;;
81908;SDS011;71372;43.514;1.512;2024-01-15T03:44:19;15.65;;;7.97;;
81908;SDS011;71372;43.514;1.512;2024-01-15T03:46:45;16.63;;;9.02;;
81908;SDS011;71372;43.514;1.512;2024-01-15T03:49:11;18.65;;;8.32;;
81908;SDS011;71372;43.514;1.512;2024-01-15T03:51:37;16.77;;;7.32;;
81908;SDS011;71372;43.514;1.512;2024-01-15T03:54:03;15.05;;;6.93;;
81908;SDS011;71372;43.514;1.512;2024-01-15T03:56:29;14.50;;;7.10;;
81908;SDS011;71372;43.514;1.512;2024-01-15T03:58:55;15.20;;;6.45;;
81908;SDS011;71372;43.514;1.512;2024-01-15T04:01:21;17.60;;;7.35;;
81908;SDS011;71372;43.514;1.512;2024-01-15T04:03:47;12.40;;;7.05;;
81908;SDS011;71372;43.514;1.512;2024-01-15T04:06:13;12.45;;;7.18;;
81908;SDS011;71372;43.514;1.512;2024-01-15T04:08:38;10.88;;;6.75;;
81908;SDS011;71372;43.514;1.512;2024-01-15T04:11:04;15.00;;;7.82;;
81908;SDS011;71372;43.514;1.512;2024-01-15T04:13:33;14.52;;;7.68;;
81908;SDS011;71372;43.514;1.512;2024-01-15T04:15:59;10.95;;;6.57;;
81908;SDS011;71372;43.514;1.512;2024-01-15T04:18:26;11.15;;;7.15;;
81908;SDS011;71372;43.514;1.512;2024-01-15T04:20:51;14.27;;;7.70;;
81908;SDS011;71372;43.514;1.512;2024-01-15T04:23:17;12.70;;;7.18;;
81908;SDS011;71372;43.514;1.512;2024-01-15T04:25:43;13.80;;;7.38;;
81908;SDS011;71372;43.514;1.512;2024-01-15T04:28:10;14.30;;;6.95;;
81908;SDS011;71372;43.514;1.512;2024-01-15T04:30:36;12.85;;;7.13;;
81908;SDS011;71372;43.514;1.512;2024-01-15T04:33:02;10.55;;;7.00;;
81908;SDS011;71372;43.514;1.512;2024-01-15T04:35:28;11.13;;;6.90;;
81908;SDS011;71372;43.514;1.512;2024-01-15T04:37:54;12.63;;;7.15;;
81908;SDS011;71372;43.514;1.512;2024-01-15T04:40:20;12.35;;;7.55;;
81908;SDS011;71372;43.514;1.512;2024-01-15T04:42:45;13.15;;;7.03;;
81908;SDS011;71372;43.514;1.512;2024-01-15T04:45:11;11.45;;;6.13;;
81908;SDS011;71372;43.514;1.512;2024-01-15T04:47:37;11.10;;;6.43;;
81908;SDS011;71372;43.514;1.512;2024-01-15T04:50:04;14.07;;;8.13;;
81908;SDS011;71372;43.514;1.512;2024-01-15T04:52:30;14.63;;;8.77;;
81908;SDS011;71372;43.514;1.512;2024-01-15T04:54:56;16.35;;;9.20;;
81908;SDS011;71372;43.514;1.512;2024-01-15T04:57:22;17.70;;;8.65;;
81908;SDS011;71372;43.514;1.512;2024-01-15T04:59:48;21.10;;;9.00;;
81908;SDS011;71372;43.514;1.512;2024-01-15T05:02:14;14.73;;;9.25;;
81908;SDS011;71372;43.514;1.512;2024-01-15T05:04:40;18.00;;;9.38;;
81908;SDS011;71372;43.514;1.512;2024-01-15T05:07:06;19.25;;;9.75;;
81908;SDS011;71372;43.514;1.512;2024-01-15T05:09:32;17.48;;;9.25;;
81908;SDS011;71372;43.514;1.512;2024-01-15T05:11:57;15.70;;;9.48;;
81908;SDS011;71372;43.514;1.512;2024-01-15T05:14:23;16.38;;;9.00;;
81908;SDS011;71372;43.514;1.512;2024-01-15T05:16:49;12.73;;;8.00;;
81908;SDS011;71372;43.514;1.512;2024-01-15T05:19:16;16.35;;;9.75;;
81908;SDS011;71372;43.514;1.512;2024-01-15T05:21:42;19.98;;;10.25;;
81908;SDS011;71372;43.514;1.512;2024-01-15T05:24:08;15.77;;;9.85;;
81908;SDS011;71372;43.514;1.512;2024-01-15T05:26:34;16.67;;;9.68;;
81908;SDS011;71372;43.514;1.512;2024-01-15T05:29:00;18.00;;;9.23;;
81908;SDS011;71372;43.514;1.512;2024-01-15T05:31:26;19.48;;;10.68;;
81908;SDS011;71372;43.514;1.512;2024-01-15T05:33:52;19.02;;;10.18;;
81908;SDS011;71372;43.514;1.512;2024-01-15T05:36:18;23.23;;;11.57;;
81908;SDS011;71372;43.514;1.512;2024-01-15T05:38:43;23.23;;;12.27;;
81908;SDS011;71372;43.514;1.512;2024-01-15T05:41:09;24.88;;;14.02;;
81908;SDS011;71372;43.514;1.512;2024-01-15T05:43:35;21.80;;;13.15;;
81908;SDS011;71372;43.514;1.512;2024-01-15T05:46:01;34.03;;;17.58;;
81908;SDS011;71372;43.514;1.512;2024-01-15T05:48:28;23.70;;;13.88;;
81908;SDS011;71372;43.514;1.512;2024-01-15T05:50:54;26.10;;;13.85;;
81908;SDS011;71372;43.514;1.512;2024-01-15T05:53:20;25.35;;;13.57;;
81908;SDS011;71372;43.514;1.512;2024-01-15T05:55:46;25.38;;;12.68;;
81908;SDS011;71372;43.514;1.512;2024-01-15T05:58:12;27.00;;;14.57;;
81908;SDS011;71372;43.514;1.512;2024-01-15T06:00:38;19.75;;;11.82;;
81908;SDS011;71372;43.514;1.512;2024-01-15T06:03:04;29.40;;;13.90;;
81908;SDS011;71372;43.514;1.512;2024-01-15T06:05:30;22.88;;;13.00;;
81908;SDS011;71372;43.514;1.512;2024-01-15T06:07:56;21.27;;;12.25;;
81908;SDS011;71372;43.514;1.512;2024-01-15T06:10:22;22.05;;;12.05;;
81908;SDS011;71372;43.514;1.512;2024-01-15T06:12:47;23.25;;;12.68;;
81908;SDS011;71372;43.514;1.512;2024-01-15T06:15:13;23.80;;;13.35;;
81908;SDS011;71372;43.514;1.512;2024-01-15T06:17:39;27.50;;;12.40;;
81908;SDS011;71372;43.514;1.512;2024-01-15T06:20:05;21.55;;;12.05;;
81908;SDS011;71372;43.514;1.512;2024-01-15T06:22:32;19.75;;;10.80;;
81908;SDS011;71372;43.514;1.512;2024-01-15T06:24:58;23.67;;;11.82;;
81908;SDS011;71372;43.514;1.512;2024-01-15T06:27:24;21.67;;;11.25;;
81908;SDS011;71372;43.514;1.512;2024-01-15T06:29:49;22.75;;;11.50;;
81908;SDS011;71372;43.514;1.512;2024-01-15T06:32:15;22.25;;;11.13;;
81908;SDS011;71372;43.514;1.512;2024-01-15T06:34:41;23.85;;;10.75;;
81908;SDS011;71372;43.514;1.512;2024-01-15T06:37:07;18.30;;;10.40;;
81908;SDS011;71372;43.514;1.512;2024-01-15T06:39:34;26.50;;;12.10;;
81908;SDS011;71372;43.514;1.512;2024-01-15T06:42:00;27.40;;;11.55;;
81908;SDS011;71372;43.514;1.512;2024-01-15T06:44:26;29.88;;;11.77;;
81908;SDS011;71372;43.514;1.512;2024-01-15T06:46:51;36.75;;;13.40;;
81908;SDS011;71372;43.514;1.512;2024-01-15T06:49:18;40.75;;;12.30;;
81908;SDS011;71372;43.514;1.512;2024-01-15T06:51:44;27.65;;;12.85;;
81908;SDS011;71372;43.514;1.512;2024-01-15T06:54:10;27.58;;;11.20;;
81908;SDS011;71372;43.514;1.512;2024-01-15T06:56:36;22.02;;;11.00;;
81908;SDS011;71372;43.514;1.512;2024-01-15T06:59:02;29.60;;;11.77;;
81908;SDS011;71372;43.514;1.512;2024-01-15T07:01:29;24.98;;;11.50;;
81908;SDS011;71372;43.514;1.512;2024-01-15T07:03:58;30.67;;;12.35;;
81908;SDS011;71372;43.514;1.512;2024-01-15T07:06:23;30.17;;;13.05;;
81908;SDS011;71372;43.514;1.512;2024-01-15T07:08:49;55.28;;;14.45;;
81908;SDS011;71372;43.514;1.512;2024-01-15T07:11:15;47.30;;;14.13;;
81908;SDS011;71372;43.514;1.512;2024-01-15T07:13:41;42.00;;;15.07;;
81908;SDS011;71372;43.514;1.512;2024-01-15T07:16:07;50.47;;;16.85;;
81908;SDS011;71372;43.514;1.512;2024-01-15T07:18:33;47.38;;;17.48;;
81908;SDS011;71372;43.514;1.512;2024-01-15T07:20:59;41.17;;;16.60;;
81908;SDS011;71372;43.514;1.512;2024-01-15T07:23:26;50.22;;;16.88;;
81908;SDS011;71372;43.514;1.512;2024-01-15T07:25:52;46.08;;;17.95;;
81908;SDS011;71372;43.514;1.512;2024-01-15T07:28:19;47.38;;;17.90;;
81908;SDS011;71372;43.514;1.512;2024-01-15T07:30:45;38.78;;;16.75;;
81908;SDS011;71372;43.514;1.512;2024-01-15T07:33:11;49.33;;;18.33;;
81908;SDS011;71372;43.514;1.512;2024-01-15T07:35:37;54.30;;;17.05;;
81908;SDS011;71372;43.514;1.512;2024-01-15T07:38:03;71.93;;;17.65;;
81908;SDS011;71372;43.514;1.512;2024-01-15T07:40:29;64.47;;;16.35;;
81908;SDS011;71372;43.514;1.512;2024-01-15T07:42:55;73.00;;;18.33;;
81908;SDS011;71372;43.514;1.512;2024-01-15T07:45:21;64.00;;;18.67;;
81908;SDS011;71372;43.514;1.512;2024-01-15T07:47:47;60.03;;;18.65;;
81908;SDS011;71372;43.514;1.512;2024-01-15T07:50:13;65.93;;;22.15;;
81908;SDS011;71372;43.514;1.512;2024-01-15T07:52:40;58.00;;;20.00;;
81908;SDS011;71372;43.514;1.512;2024-01-15T07:55:07;73.97;;;23.10;;
81908;SDS011;71372;43.514;1.512;2024-01-15T07:57:33;80.00;;;19.80;;
81908;SDS011;71372;43.514;1.512;2024-01-15T08:00:01;58.42;;;17.02;;
81908;SDS011;71372;43.514;1.512;2024-01-15T08:02:30;54.28;;;17.02;;
81908;SDS011;71372;43.514;1.512;2024-01-15T08:04:57;56.10;;;17.15;;
81908;SDS011;71372;43.514;1.512;2024-01-15T08:07:24;54.92;;;17.67;;
81908;SDS011;71372;43.514;1.512;2024-01-15T08:09:51;51.42;;;17.20;;
81908;SDS011;71372;43.514;1.512;2024-01-15T08:12:18;49.55;;;16.95;;
81908;SDS011;71372;43.514;1.512;2024-01-15T08:14:44;43.85;;;16.75;;
81908;SDS011;71372;43.514;1.512;2024-01-15T08:17:11;43.15;;;14.48;;
81908;SDS011;71372;43.514;1.512;2024-01-15T08:19:37;47.60;;;15.52;;
81908;SDS011;71372;43.514;1.512;2024-01-15T08:22:03;46.65;;;15.98;;
81908;SDS011;71372;43.514;1.512;2024-01-15T08:24:28;51.10;;;15.52;;
81908;SDS011;71372;43.514;1.512;2024-01-15T08:26:54;46.35;;;17.17;;
81908;SDS011;71372;43.514;1.512;2024-01-15T08:29:21;50.45;;;17.02;;
81908;SDS011;71372;43.514;1.512;2024-01-15T08:31:47;49.35;;;16.17;;
81908;SDS011;71372;43.514;1.512;2024-01-15T08:34:13;43.60;;;15.77;;
81908;SDS011;71372;43.514;1.512;2024-01-15T08:36:39;54.55;;;17.85;;
81908;SDS011;71372;43.514;1.512;2024-01-15T08:39:06;43.20;;;14.50;;
81908;SDS011;71372;43.514;1.512;2024-01-15T08:41:34;48.67;;;16.77;;
81908;SDS011;71372;43.514;1.512;2024-01-15T08:44:01;45.95;;;16.17;;
81908;SDS011;71372;43.514;1.512;2024-01-15T08:46:28;57.47;;;19.55;;
81908;SDS011;71372;43.514;1.512;2024-01-15T08:48:54;59.25;;;17.42;;
81908;SDS011;71372;43.514;1.512;2024-01-15T08:51:20;49.53;;;15.80;;
81908;SDS011;71372;43.514;1.512;2024-01-15T08:53:46;46.47;;;16.48;;
81908;SDS011;71372;43.514;1.512;2024-01-15T08:56:12;50.05;;;16.33;;
81908;SDS011;71372;43.514;1.512;2024-01-15T08:58:38;48.17;;;16.83;;
81908;SDS011;71372;43.514;1.512;2024-01-15T09:01:03;46.60;;;15.98;;
81908;SDS011;71372;43.514;1.512;2024-01-15T09:03:30;42.35;;;13.20;;
81908;SDS011;71372;43.514;1.512;2024-01-15T09:05:55;40.90;;;12.57;;
81908;SDS011;71372;43.514;1.512;2024-01-15T09:08:22;40.35;;;12.95;;
81908;SDS011;71372;43.514;1.512;2024-01-15T09:10:47;38.28;;;12.88;;
81908;SDS011;71372;43.514;1.512;2024-01-15T09:13:13;42.50;;;14.32;;
81908;SDS011;71372;43.514;1.512;2024-01-15T09:15:39;38.42;;;12.70;;
81908;SDS011;71372;43.514;1.512;2024-01-15T09:18:05;41.55;;;14.10;;
81908;SDS011;71372;43.514;1.512;2024-01-15T09:20:31;46.90;;;14.52;;
81908;SDS011;71372;43.514;1.512;2024-01-15T09:22:57;46.25;;;15.18;;
81908;SDS011;71372;43.514;1.512;2024-01-15T09:25:23;46.72;;;14.75;;
81908;SDS011;71372;43.514;1.512;2024-01-15T09:27:49;42.85;;;12.93;;
81908;SDS011;71372;43.514;1.512;2024-01-15T09:30:15;41.58;;;13.23;;
81908;SDS011;71372;43.514;1.512;2024-01-15T09:32:41;36.03;;;12.23;;
81908;SDS011;71372;43.514;1.512;2024-01-15T09:35:07;36.63;;;13.07;;
81908;SDS011;71372;43.514;1.512;2024-01-15T09:37:34;34.58;;;12.75;;
81908;SDS011;71372;43.514;1.512;2024-01-15T09:40:00;32.97;;;12.35;;
81908;SDS011;71372;43.514;1.512;2024-01-15T09:42:26;34.55;;;12.43;;
81908;SDS011;71372;43.514;1.512;2024-01-15T09:44:53;34.58;;;13.05;;
81908;SDS011;71372;43.514;1.512;2024-01-15T09:47:20;36.72;;;13.68;;
81908;SDS011;71372;43.514;1.512;2024-01-15T09:49:47;31.75;;;12.98;;
81908;SDS011;71372;43.514;1.512;2024-01-15T09:52:14;37.08;;;13.45;;
81908;SDS011;71372;43.514;1.512;2024-01-15T09:57:09;30.70;;;12.57;;
81908;SDS011;71372;43.514;1.512;2024-01-15T09:59:36;30.42;;;12.27;;
81908;SDS011;71372;43.514;1.512;2024-01-15T10:02:03;31.50;;;12.35;;
81908;SDS011;71372;43.514;1.512;2024-01-15T10:04:30;29.83;;;11.10;;
81908;SDS011;71372;43.514;1.512;2024-01-15T10:06:56;32.40;;;11.88;;
81908;SDS011;71372;43.514;1.512;2024-01-15T10:09:26;27.17;;;11.85;;
81908;SDS011;71372;43.514;1.512;2024-01-15T10:11:52;27.02;;;11.48;;
81908;SDS011;71372;43.514;1.512;2024-01-15T10:14:19;26.23;;;11.40;;
81908;SDS011;71372;43.514;1.512;2024-01-15T10:16:45;27.05;;;11.63;;
81908;SDS011;71372;43.514;1.512;2024-01-15T10:19:11;28.48;;;12.13;;
81908;SDS011;71372;43.514;1.512;2024-01-15T10:21:39;32.40;;;12.50;;
81908;SDS011;71372;43.514;1.512;2024-01-15T10:24:05;26.15;;;10.85;;
81908;SDS011;71372;43.514;1.512;2024-01-15T10:26:32;26.77;;;11.38;;
81908;SDS011;71372;43.514;1.512;2024-01-15T10:28:58;24.95;;;12.00;;
81908;SDS011;71372;43.514;1.512;2024-01-15T10:31:25;26.33;;;12.50;;
81908;SDS011;71372;43.514;1.512;2024-01-15T10:33:51;24.98;;;11.30;;
81908;SDS011;71372;43.514;1.512;2024-01-15T10:36:17;25.90;;;11.80;;
81908;SDS011;71372;43.514;1.512;2024-01-15T10:38:45;24.17;;;10.13;;
81908;SDS011;71372;43.514;1.512;2024-01-15T10:41:12;20.45;;;10.00;;
81908;SDS011;71372;43.514;1.512;2024-01-15T10:43:38;22.25;;;9.88;;
81908;SDS011;71372;43.514;1.512;2024-01-15T10:46:07;20.73;;;10.00;;
81908;SDS011;71372;43.514;1.512;2024-01-15T10:48:33;19.38;;;9.00;;
81908;SDS011;71372;43.514;1.512;2024-01-15T10:51:01;20.10;;;9.77;;
81908;SDS011;71372;43.514;1.512;2024-01-15T10:53:37;18.83;;;9.52;;
81908;SDS011;71372;43.514;1.512;2024-01-15T10:56:05;20.00;;;9.75;;
81908;SDS011;71372;43.514;1.512;2024-01-15T10:58:33;21.52;;;10.00;;
81908;SDS011;71372;43.514;1.512;2024-01-15T11:00:59;23.17;;;10.10;;
81908;SDS011;71372;43.514;1.512;2024-01-15T11:03:27;21.63;;;10.45;;
81908;SDS011;71372;43.514;1.512;2024-01-15T11:05:53;27.30;;;11.20;;
81908;SDS011;71372;43.514;1.512;2024-01-15T11:08:19;25.25;;;11.05;;
81908;SDS011;71372;43.514;1.512;2024-01-15T11:10:46;22.83;;;10.98;;
81908;SDS011;71372;43.514;1.512;2024-01-15T11:18:30;22.38;;;11.15;;
81908;SDS011;71372;43.514;1.512;2024-01-15T11:23:42;23.75;;;12.00;;
81908;SDS011;71372;43.514;1.512;2024-01-15T11:29:07;25.17;;;11.65;;
81908;SDS011;71372;43.514;1.512;2024-01-15T11:34:05;26.35;;;12.00;;
81908;SDS011;71372;43.514;1.512;2024-01-15T11:41:58;19.75;;;10.13;;
81908;SDS011;71372;43.514;1.512;2024-01-15T11:44:25;19.33;;;10.13;;
81908;SDS011;71372;43.514;1.512;2024-01-15T11:47:01;20.95;;;11.20;;
81908;SDS011;71372;43.514;1.512;2024-01-15T11:52:16;22.92;;;11.35;;
81908;SDS011;71372;43.514;1.512;2024-01-15T11:54:55;22.02;;;11.95;;
81908;SDS011;71372;43.514;1.512;2024-01-15T11:57:37;25.73;;;12.93;;
81908;SDS011;71372;43.514;1.512;2024-01-15T12:00:11;24.02;;;12.20;;
81908;SDS011;71372;43.514;1.512;2024-01-15T12:02:41;23.48;;;12.23;;
81908;SDS011;71372;43.514;1.512;2024-01-15T12:05:09;22.40;;;12.13;;
81908;SDS011;71372;43.514;1.512;2024-01-15T12:07:39;22.83;;;10.98;;
81908;SDS011;71372;43.514;1.512;2024-01-15T12:10:09;22.48;;;12.38;;
81908;SDS011;71372;43.514;1.512;2024-01-15T12:12:43;27.23;;;12.10;;
81908;SDS011;71372;43.514;1.512;2024-01-15T12:15:22;21.73;;;12.13;;
81908;SDS011;71372;43.514;1.512;2024-01-15T12:17:48;27.92;;;15.23;;
81908;SDS011;71372;43.514;1.512;2024-01-15T12:20:14;26.63;;;13.60;;
81908;SDS011;71372;43.514;1.512;2024-01-15T12:22:41;24.05;;;12.18;;
81908;SDS011;71372;43.514;1.512;2024-01-15T12:25:07;24.33;;;11.43;;
81908;SDS011;71372;43.514;1.512;2024-01-15T12:27:33;23.08;;;11.35;;
81908;SDS011;71372;43.514;1.512;2024-01-15T12:29:59;20.38;;;10.98;;
81908;SDS011;71372;43.514;1.512;2024-01-15T12:32:25;19.75;;;11.48;;
81908;SDS011;71372;43.514;1.512;2024-01-15T12:34:51;23.60;;;11.50;;
81908;SDS011;71372;43.514;1.512;2024-01-15T12:37:20;23.73;;;12.60;;
81908;SDS011;71372;43.514;1.512;2024-01-15T12:39:47;20.00;;;11.48;;
81908;SDS011;71372;43.514;1.512;2024-01-15T12:42:16;20.50;;;11.65;;
81908;SDS011;71372;43.514;1.512;2024-01-15T12:44:42;22.17;;;12.05;;
81908;SDS011;71372;43.514;1.512;2024-01-15T12:47:10;23.63;;;13.13;;
81908;SDS011;71372;43.514;1.512;2024-01-15T12:49:37;21.17;;;13.05;;
81908;SDS011;71372;43.514;1.512;2024-01-15T12:52:03;21.83;;;13.25;;
81908;SDS011;71372;43.514;1.512;2024-01-15T12:54:29;20.98;;;12.52;;
81908;SDS011;71372;43.514;1.512;2024-01-15T12:56:55;27.55;;;16.23;;
81908;SDS011;71372;43.514;1.512;2024-01-15T12:59:21;34.03;;;20.83;;
81908;SDS011;71372;43.514;1.512;2024-01-15T13:01:47;30.38;;;18.02;;
81908;SDS011;71372;43.514;1.512;2024-01-15T13:04:25;27.92;;;16.80;;
81908;SDS011;71372;43.514;1.512;2024-01-15T13:06:51;25.00;;;13.60;;
81908;SDS011;71372;43.514;1.512;2024-01-15T13:09:17;34.33;;;18.67;;
81908;SDS011;71372;43.514;1.512;2024-01-15T13:11:46;33.95;;;20.05;;
81908;SDS011;71372;43.514;1.512;2024-01-15T13:14:12;27.75;;;15.60;;
81908;SDS011;71372;43.514;1.512;2024-01-15T13:16:41;25.88;;;14.18;;
81908;SDS011;71372;43.514;1.512;2024-01-15T13:19:08;22.30;;;12.48;;
81908;SDS011;71372;43.514;1.512;2024-01-15T13:21:37;23.38;;;13.50;;
81908;SDS011;71372;43.514;1.512;2024-01-15T13:24:03;23.67;;;13.15;;
81908;SDS011;71372;43.514;1.512;2024-01-15T13:26:31;24.20;;;14.18;;
81908;SDS011;71372;43.514;1.512;2024-01-15T13:29:01;24.67;;;13.13;;
81908;SDS011;71372;43.514;1.512;2024-01-15T13:31:27;23.83;;;13.13;;
81908;SDS011;71372;43.514;1.512;2024-01-15T13:33:53;20.63;;;12.80;;
81908;SDS011;71372;43.514;1.512;2024-01-15T13:36:21;20.05;;;12.68;;
81908;SDS011;71372;43.514;1.512;2024-01-15T13:38:49;20.52;;;11.65;;
81908;SDS011;71372;43.514;1.512;2024-01-15T13:41:16;16.95;;;10.55;;
81908;SDS011;71372;43.514;1.512;2024-01-15T13:43:50;15.68;;;10.05;;
81908;SDS011;71372;43.514;1.512;2024-01-15T13:46:18;18.88;;;10.68;;
81908;SDS011;71372;43.514;1.512;2024-01-15T13:48:45;19.77;;;10.88;;
81908;SDS011;71372;43.514;1.512;2024-01-15T13:51:11;17.30;;;11.30;;
81908;SDS011;71372;43.514;1.512;2024-01-15T13:53:37;21.30;;;11.98;;
81908;SDS011;71372;43.514;1.512;2024-01-15T13:56:04;19.83;;;10.50;;
81908;SDS011;71372;43.514;1.512;2024-01-15T13:58:31;18.38;;;10.15;;
81908;SDS011;71372;43.514;1.512;2024-01-15T14:00:58;19.27;;;10.55;;
81908;SDS011;71372;43.514;1.512;2024-01-15T14:03:24;21.95;;;12.40;;
81908;SDS011;71372;43.514;1.512;2024-01-15T14:05:55;18.52;;;11.13;;
81908;SDS011;71372;43.514;1.512;2024-01-15T14:08:21;18.08;;;11.90;;
81908;SDS011;71372;43.514;1.512;2024-01-15T14:10:47;17.85;;;11.88;;
81908;SDS011;71372;43.514;1.512;2024-01-15T14:13:13;10.65;;;5.85;;
81908;SDS011;71372;43.514;1.512;2024-01-15T14:15:39;8.38;;;5.93;;
81908;SDS011;71372;43.514;1.512;2024-01-15T14:18:05;9.82;;;6.47;;
81908;SDS011;71372;43.514;1.512;2024-01-15T14:20:31;9.77;;;6.35;;
81908;SDS011;71372;43.514;1.512;2024-01-15T14:22:58;8.40;;;5.95;;
81908;SDS011;71372;43.514;1.512;2024-01-15T14:25:24;10.18;;;6.45;;
81908;SDS011;71372;43.514;1.512;2024-01-15T14:27:50;8.27;;;5.72;;
81908;SDS011;71372;43.514;1.512;2024-01-15T14:30:16;9.82;;;5.82;;
81908;SDS011;71372;43.514;1.512;2024-01-15T14:32:42;7.45;;;5.50;;
81908;SDS011;71372;43.514;1.512;2024-01-15T14:35:08;7.97;;;5.60;;
81908;SDS011;71372;43.514;1.512;2024-01-15T14:37:39;6.60;;;5.18;;
81908;SDS011;71372;43.514;1.512;2024-01-15T14:40:06;8.80;;;5.30;;
81908;SDS011;71372;43.514;1.512;2024-01-15T14:42:41;9.82;;;5.38;;
81908;SDS011;71372;43.514;1.512;2024-01-15T14:45:07;10.35;;;5.13;;
81908;SDS011;71372;43.514;1.512;2024-01-15T14:47:40;5.13;;;4.05;;
81908;SDS011;71372;43.514;1.512;2024-01-15T14:50:07;7.20;;;5.22;;